sensor_id;sensor_type;location;lat;lon;timestamp;temperature;humidity
37842;DHT22;23682;53.508;10.476;2022-08-11T00:00:17;17.50;99.90
37842;DHT22;23682;53.508;10.476;2022-08-11T00:02:47;17.50;99.90
37842;DHT22;23682;53.508;10.476;2022-08-11T00:05:19;17.50;99.90
37842;DHT22;23682;53.508;10.476;2022-08-11T00:07:51;17.40;99.90
37842;DHT22;23682;53.508;10.476;2022-08-11T00:10:26;17.40;99.90
37842;DHT22;23682;53.508;10.476;2022-08-11T00:12:59;17.40;99.90
37842;DHT22;23682;53.508;10.476;2022-08-11T00:15:38;17.40;99.90
37842;DHT22;23682;53.508;10.476;2022-08-11T00:18:05;17.30;99.90
37842;DHT22;23682;53.508;10.476;2022-08-11T00:20:35;17.30;99.90
37842;DHT22;23682;53.508;10.476;2022-08-11T00:23:10;17.30;99.90
37842;DHT22;23682;53.508;10.476;2022-08-11T00:25:41;17.20;99.90
37842;DHT22;23682;53.508;10.476;2022-08-11T00:28:30;17.20;99.90
37842;DHT22;23682;53.508;10.476;2022-08-11T00:31:00;17.10;99.90
37842;DHT22;23682;53.508;10.476;2022-08-11T00:33:33;17.10;99.90
37842;DHT22;23682;53.508;10.476;2022-08-11T00:36:14;17.10;99.90
37842;DHT22;23682;53.508;10.476;2022-08-11T00:38:43;17.10;99.90
37842;DHT22;23682;53.508;10.476;2022-08-11T00:41:41;17.10;99.90
37842;DHT22;23682;53.508;10.476;2022-08-11T00:50:17;16.90;99.90
37842;DHT22;23682;53.508;10.476;2022-08-11T00:53:06;16.90;99.90
37842;DHT22;23682;53.508;10.476;2022-08-11T01:06:36;16.70;99.90
37842;DHT22;23682;53.508;10.476;2022-08-11T01:23:11;16.70;99.90
37842;DHT22;23682;53.508;10.476;2022-08-11T01:26:13;16.70;99.90
37842;DHT22;23682;53.508;10.476;2022-08-11T01:29:10;16.60;99.90
37842;DHT22;23682;53.508;10.476;2022-08-11T01:31:59;16.60;99.90
37842;DHT22;23682;53.508;10.476;2022-08-11T01:40:17;16.50;99.90
37842;DHT22;23682;53.508;10.476;2022-08-11T01:43:13;16.50;99.90
37842;DHT22;23682;53.508;10.476;2022-08-11T01:48:58;16.40;99.90
37842;DHT22;23682;53.508;10.476;2022-08-11T01:52:01;16.30;99.90
37842;DHT22;23682;53.508;10.476;2022-08-11T01:57:35;16.40;99.90
37842;DHT22;23682;53.508;10.476;2022-08-11T02:00:09;16.40;99.90
37842;DHT22;23682;53.508;10.476;2022-08-11T02:02:52;16.30;99.90
37842;DHT22;23682;53.508;10.476;2022-08-11T02:05:28;16.30;99.90
37842;DHT22;23682;53.508;10.476;2022-08-11T02:23:03;16.00;99.90
37842;DHT22;23682;53.508;10.476;2022-08-11T02:26:24;16.00;99.90
37842;DHT22;23682;53.508;10.476;2022-08-11T02:47:53;15.90;99.90
37842;DHT22;23682;53.508;10.476;2022-08-11T03:10:22;15.60;99.90
37842;DHT22;23682;53.508;10.476;2022-08-11T03:13:18;15.70;99.90
37842;DHT22;23682;53.508;10.476;2022-08-11T03:19:07;15.60;99.90
37842;DHT22;23682;53.508;10.476;2022-08-11T03:28:09;15.60;99.90
37842;DHT22;23682;53.508;10.476;2022-08-11T03:30:51;15.50;99.90
37842;DHT22;23682;53.508;10.476;2022-08-11T03:33:32;15.60;99.90
37842;DHT22;23682;53.508;10.476;2022-08-11T03:42:42;15.40;99.90
37842;DHT22;23682;53.508;10.476;2022-08-11T03:45:29;15.50;99.90
37842;DHT22;23682;53.508;10.476;2022-08-11T03:48:19;15.40;99.90
37842;DHT22;23682;53.508;10.476;2022-08-11T03:56:33;15.30;99.90
37842;DHT22;23682;53.508;10.476;2022-08-11T03:59:21;15.30;99.90
37842;DHT22;23682;53.508;10.476;2022-08-11T04:08:10;15.20;99.90
37842;DHT22;23682;53.508;10.476;2022-08-11T04:43:20;15.30;99.90
37842;DHT22;23682;53.508;10.476;2022-08-11T04:46:13;15.40;99.90
37842;DHT22;23682;53.508;10.476;2022-08-11T04:55:31;15.40;99.90
37842;DHT22;23682;53.508;10.476;2022-08-11T05:04:49;15.60;99.90
37842;DHT22;23682;53.508;10.476;2022-08-11T05:13:49;16.00;99.90
37842;DHT22;23682;53.508;10.476;2022-08-11T05:16:50;16.00;99.90
37842;DHT22;23682;53.508;10.476;2022-08-11T05:19:37;16.20;99.90
37842;DHT22;23682;53.508;10.476;2022-08-11T05:22:27;16.30;99.90
37842;DHT22;23682;53.508;10.476;2022-08-11T05:25:29;16.40;99.90
37842;DHT22;23682;53.508;10.476;2022-08-11T05:29:00;16.60;99.90
37842;DHT22;23682;53.508;10.476;2022-08-11T05:31:54;16.80;99.90
37842;DHT22;23682;53.508;10.476;2022-08-11T05:34:43;16.90;99.90
37842;DHT22;23682;53.508;10.476;2022-08-11T05:40:00;17.30;99.90
37842;DHT22;23682;53.508;10.476;2022-08-11T05:43:00;17.60;99.90
37842;DHT22;23682;53.508;10.476;2022-08-11T05:46:05;17.80;99.90
37842;DHT22;23682;53.508;10.476;2022-08-11T05:48:52;18.20;99.90
37842;DHT22;23682;53.508;10.476;2022-08-11T05:51:42;18.40;99.90
37842;DHT22;23682;53.508;10.476;2022-08-11T05:54:39;18.60;99.90
37842;DHT22;23682;53.508;10.476;2022-08-11T05:57:34;18.80;99.90
37842;DHT22;23682;53.508;10.476;2022-08-11T06:00:17;19.00;99.90
37842;DHT22;23682;53.508;10.476;2022-08-11T06:02:49;19.20;99.90
37842;DHT22;23682;53.508;10.476;2022-08-11T06:05:29;19.30;99.90
37842;DHT22;23682;53.508;10.476;2022-08-11T06:08:07;19.50;99.90
37842;DHT22;23682;53.508;10.476;2022-08-11T06:10:37;19.60;99.90
37842;DHT22;23682;53.508;10.476;2022-08-11T06:13:06;19.70;99.90
37842;DHT22;23682;53.508;10.476;2022-08-11T06:15:44;19.80;99.90
37842;DHT22;23682;53.508;10.476;2022-08-11T06:18:11;19.90;99.90
37842;DHT22;23682;53.508;10.476;2022-08-11T06:21:08;20.20;99.90
37842;DHT22;23682;53.508;10.476;2022-08-11T06:23:36;20.40;99.90
37842;DHT22;23682;53.508;10.476;2022-08-11T06:26:11;20.80;99.90
37842;DHT22;23682;53.508;10.476;2022-08-11T06:28:41;21.20;99.90
37842;DHT22;23682;53.508;10.476;2022-08-11T06:31:16;21.80;99.90
37842;DHT22;23682;53.508;10.476;2022-08-11T06:33:54;22.30;99.20
37842;DHT22;23682;53.508;10.476;2022-08-11T06:36:53;22.70;98.50
37842;DHT22;23682;53.508;10.476;2022-08-11T06:39:49;23.00;98.00
37842;DHT22;23682;53.508;10.476;2022-08-11T06:45:33;23.60;96.40
37842;DHT22;23682;53.508;10.476;2022-08-11T06:48:03;23.80;96.90
37842;DHT22;23682;53.508;10.476;2022-08-11T06:50:32;24.20;96.90
37842;DHT22;23682;53.508;10.476;2022-08-11T06:53:18;24.30;96.70
37842;DHT22;23682;53.508;10.476;2022-08-11T06:55:48;24.20;96.30
37842;DHT22;23682;53.508;10.476;2022-08-11T06:58:38;23.80;96.00
37842;DHT22;23682;53.508;10.476;2022-08-11T07:02:27;23.60;96.00
37842;DHT22;23682;53.508;10.476;2022-08-11T07:14:26;23.20;96.40
37842;DHT22;23682;53.508;10.476;2022-08-11T07:17:15;23.20;96.10
37842;DHT22;23682;53.508;10.476;2022-08-11T07:19:49;23.10;96.20
37842;DHT22;23682;53.508;10.476;2022-08-11T07:22:36;23.20;96.30
37842;DHT22;23682;53.508;10.476;2022-08-11T07:25:22;23.20;96.00
37842;DHT22;23682;53.508;10.476;2022-08-11T07:28:12;23.10;95.80
37842;DHT22;23682;53.508;10.476;2022-08-11T07:31:03;23.20;96.50
37842;DHT22;23682;53.508;10.476;2022-08-11T07:33:44;23.40;96.70
37842;DHT22;23682;53.508;10.476;2022-08-11T07:36:32;23.40;96.10
37842;DHT22;23682;53.508;10.476;2022-08-11T07:39:01;23.30;96.10
37842;DHT22;23682;53.508;10.476;2022-08-11T07:41:33;23.40;96.10
37842;DHT22;23682;53.508;10.476;2022-08-11T07:44:00;23.50;96.10
37842;DHT22;23682;53.508;10.476;2022-08-11T07:46:41;23.50;95.90
37842;DHT22;23682;53.508;10.476;2022-08-11T07:49:30;23.50;95.70
37842;DHT22;23682;53.508;10.476;2022-08-11T07:52:17;23.60;96.20
37842;DHT22;23682;53.508;10.476;2022-08-11T07:57:36;23.80;95.20
37842;DHT22;23682;53.508;10.476;2022-08-11T08:03:43;23.90;94.70
37842;DHT22;23682;53.508;10.476;2022-08-11T08:06:31;23.90;94.10
37842;DHT22;23682;53.508;10.476;2022-08-11T08:09:19;24.00;94.20
37842;DHT22;23682;53.508;10.476;2022-08-11T08:12:06;24.10;94.20
37842;DHT22;23682;53.508;10.476;2022-08-11T08:14:54;24.10;94.60
37842;DHT22;23682;53.508;10.476;2022-08-11T08:17:41;24.20;94.70
37842;DHT22;23682;53.508;10.476;2022-08-11T08:20:39;24.30;93.40
37842;DHT22;23682;53.508;10.476;2022-08-11T08:23:10;24.40;93.80
37842;DHT22;23682;53.508;10.476;2022-08-11T08:25:39;24.50;93.60
37842;DHT22;23682;53.508;10.476;2022-08-11T08:28:09;24.50;92.20
37842;DHT22;23682;53.508;10.476;2022-08-11T08:30:37;24.50;92.50
37842;DHT22;23682;53.508;10.476;2022-08-11T08:35:45;24.70;92.30
37842;DHT22;23682;53.508;10.476;2022-08-11T08:38:22;24.80;93.00
37842;DHT22;23682;53.508;10.476;2022-08-11T08:40:51;24.90;92.80
37842;DHT22;23682;53.508;10.476;2022-08-11T08:43:23;24.90;92.80
37842;DHT22;23682;53.508;10.476;2022-08-11T08:45:54;25.00;92.00
37842;DHT22;23682;53.508;10.476;2022-08-11T08:48:23;25.00;91.90
37842;DHT22;23682;53.508;10.476;2022-08-11T08:51:03;25.00;91.80
37842;DHT22;23682;53.508;10.476;2022-08-11T08:53:51;25.10;92.20
37842;DHT22;23682;53.508;10.476;2022-08-11T08:56:26;25.10;92.20
37842;DHT22;23682;53.508;10.476;2022-08-11T08:58:55;25.20;92.50
37842;DHT22;23682;53.508;10.476;2022-08-11T09:01:26;25.30;92.40
37842;DHT22;23682;53.508;10.476;2022-08-11T09:03:54;25.30;92.20
37842;DHT22;23682;53.508;10.476;2022-08-11T09:06:36;25.40;92.00
37842;DHT22;23682;53.508;10.476;2022-08-11T09:09:19;25.40;91.70
37842;DHT22;23682;53.508;10.476;2022-08-11T09:11:49;25.40;91.90
37842;DHT22;23682;53.508;10.476;2022-08-11T09:14:31;25.40;91.00
37842;DHT22;23682;53.508;10.476;2022-08-11T09:17:23;25.50;90.80
37842;DHT22;23682;53.508;10.476;2022-08-11T09:20:12;25.50;91.10
37842;DHT22;23682;53.508;10.476;2022-08-11T09:22:44;25.60;91.20
37842;DHT22;23682;53.508;10.476;2022-08-11T09:25:56;25.60;91.70
37842;DHT22;23682;53.508;10.476;2022-08-11T09:28:45;25.70;91.20
37842;DHT22;23682;53.508;10.476;2022-08-11T09:31:17;25.70;90.10
37842;DHT22;23682;53.508;10.476;2022-08-11T09:33:53;25.70;89.10
37842;DHT22;23682;53.508;10.476;2022-08-11T09:36:23;25.70;90.30
37842;DHT22;23682;53.508;10.476;2022-08-11T09:39:13;25.70;90.40
37842;DHT22;23682;53.508;10.476;2022-08-11T09:42:03;25.70;89.60
37842;DHT22;23682;53.508;10.476;2022-08-11T09:44:40;25.80;89.00
37842;DHT22;23682;53.508;10.476;2022-08-11T09:47:29;25.80;88.80
37842;DHT22;23682;53.508;10.476;2022-08-11T09:50:01;25.80;89.50
37842;DHT22;23682;53.508;10.476;2022-08-11T09:52:35;25.80;88.10
37842;DHT22;23682;53.508;10.476;2022-08-11T09:55:04;25.80;87.70
37842;DHT22;23682;53.508;10.476;2022-08-11T09:57:44;25.90;87.80
37842;DHT22;23682;53.508;10.476;2022-08-11T10:00:34;25.90;88.40
37842;DHT22;23682;53.508;10.476;2022-08-11T10:03:12;26.00;89.40
37842;DHT22;23682;53.508;10.476;2022-08-11T10:05:47;26.00;88.50
37842;DHT22;23682;53.508;10.476;2022-08-11T10:08:37;26.00;89.00
37842;DHT22;23682;53.508;10.476;2022-08-11T10:11:20;26.00;90.00
37842;DHT22;23682;53.508;10.476;2022-08-11T10:13:52;26.00;88.90
37842;DHT22;23682;53.508;10.476;2022-08-11T10:17:03;26.10;89.20
37842;DHT22;23682;53.508;10.476;2022-08-11T10:19:42;26.20;92.40
37842;DHT22;23682;53.508;10.476;2022-08-11T10:22:35;26.10;89.50
37842;DHT22;23682;53.508;10.476;2022-08-11T10:25:26;26.00;89.80
37842;DHT22;23682;53.508;10.476;2022-08-11T10:28:16;26.00;90.00
37842;DHT22;23682;53.508;10.476;2022-08-11T12:08:28;26.80;84.80
37842;DHT22;23682;53.508;10.476;2022-08-11T12:11:01;26.80;84.40
37842;DHT22;23682;53.508;10.476;2022-08-11T12:13:52;26.80;86.20
37842;DHT22;23682;53.508;10.476;2022-08-11T12:16:22;26.80;85.20
37842;DHT22;23682;53.508;10.476;2022-08-11T12:19:05;26.90;84.70
37842;DHT22;23682;53.508;10.476;2022-08-11T12:21:34;26.80;84.60
37842;DHT22;23682;53.508;10.476;2022-08-11T12:24:01;26.90;84.30
37842;DHT22;23682;53.508;10.476;2022-08-11T12:26:48;26.90;84.40
37842;DHT22;23682;53.508;10.476;2022-08-11T12:29:35;27.00;83.70
37842;DHT22;23682;53.508;10.476;2022-08-11T12:32:08;27.00;85.30
37842;DHT22;23682;53.508;10.476;2022-08-11T12:34:35;27.00;84.40
37842;DHT22;23682;53.508;10.476;2022-08-11T12:37:03;27.00;86.40
37842;DHT22;23682;53.508;10.476;2022-08-11T12:39:49;27.00;87.50
37842;DHT22;23682;53.508;10.476;2022-08-11T12:42:58;27.10;84.60
37842;DHT22;23682;53.508;10.476;2022-08-11T12:45:53;27.00;84.10
37842;DHT22;23682;53.508;10.476;2022-08-11T12:48:31;27.00;84.00
37842;DHT22;23682;53.508;10.476;2022-08-11T12:51:33;27.00;83.80
37842;DHT22;23682;53.508;10.476;2022-08-11T12:54:50;27.00;84.40
37842;DHT22;23682;53.508;10.476;2022-08-11T12:57:35;27.10;84.10
37842;DHT22;23682;53.508;10.476;2022-08-11T13:00:21;27.00;83.90
37842;DHT22;23682;53.508;10.476;2022-08-11T13:03:09;27.10;84.90
37842;DHT22;23682;53.508;10.476;2022-08-11T13:05:57;27.00;85.40
37842;DHT22;23682;53.508;10.476;2022-08-11T13:08:26;27.20;84.30
37842;DHT22;23682;53.508;10.476;2022-08-11T13:10:57;27.10;85.80
37842;DHT22;23682;53.508;10.476;2022-08-11T13:13:46;27.20;82.60
37842;DHT22;23682;53.508;10.476;2022-08-11T13:16:28;27.30;82.60
37842;DHT22;23682;53.508;10.476;2022-08-11T13:18:59;27.20;82.10
37842;DHT22;23682;53.508;10.476;2022-08-11T13:21:27;27.30;81.50
37842;DHT22;23682;53.508;10.476;2022-08-11T13:23:55;27.20;82.00
37842;DHT22;23682;53.508;10.476;2022-08-11T13:26:35;27.20;82.80
37842;DHT22;23682;53.508;10.476;2022-08-11T13:29:24;27.20;83.40
37842;DHT22;23682;53.508;10.476;2022-08-11T13:31:54;27.20;83.30
37842;DHT22;23682;53.508;10.476;2022-08-11T13:34:24;27.20;83.10
37842;DHT22;23682;53.508;10.476;2022-08-11T13:36:54;27.20;82.20
37842;DHT22;23682;53.508;10.476;2022-08-11T13:39:24;27.20;81.40
37842;DHT22;23682;53.508;10.476;2022-08-11T13:41:54;27.20;81.30
37842;DHT22;23682;53.508;10.476;2022-08-11T13:44:25;27.30;81.30
37842;DHT22;23682;53.508;10.476;2022-08-11T13:46:55;27.20;81.40
37842;DHT22;23682;53.508;10.476;2022-08-11T13:49:23;27.40;81.30
37842;DHT22;23682;53.508;10.476;2022-08-11T13:51:51;27.40;80.90
37842;DHT22;23682;53.508;10.476;2022-08-11T13:54:25;27.40;81.80
37842;DHT22;23682;53.508;10.476;2022-08-11T13:57:00;27.50;82.00
37842;DHT22;23682;53.508;10.476;2022-08-11T13:59:28;27.50;80.80
37842;DHT22;23682;53.508;10.476;2022-08-11T14:02:05;27.50;79.80
37842;DHT22;23682;53.508;10.476;2022-08-11T14:04:54;27.60;80.30
37842;DHT22;23682;53.508;10.476;2022-08-11T14:07:26;27.60;79.20
37842;DHT22;23682;53.508;10.476;2022-08-11T14:09:57;27.50;79.90
37842;DHT22;23682;53.508;10.476;2022-08-11T14:12:36;27.50;79.30
37842;DHT22;23682;53.508;10.476;2022-08-11T14:15:26;27.40;79.60
37842;DHT22;23682;53.508;10.476;2022-08-11T14:18:04;27.50;79.90
37842;DHT22;23682;53.508;10.476;2022-08-11T14:20:34;27.50;79.80
37842;DHT22;23682;53.508;10.476;2022-08-11T14:23:28;27.50;80.00
37842;DHT22;23682;53.508;10.476;2022-08-11T14:25:57;27.60;79.90
37842;DHT22;23682;53.508;10.476;2022-08-11T14:28:44;27.60;79.50
37842;DHT22;23682;53.508;10.476;2022-08-11T14:31:13;27.60;80.20
37842;DHT22;23682;53.508;10.476;2022-08-11T14:33:42;27.60;79.40
37842;DHT22;23682;53.508;10.476;2022-08-11T14:36:38;27.50;79.80
37842;DHT22;23682;53.508;10.476;2022-08-11T14:39:10;27.50;78.90
37842;DHT22;23682;53.508;10.476;2022-08-11T14:41:40;27.60;79.70
37842;DHT22;23682;53.508;10.476;2022-08-11T14:44:42;27.60;79.10
37842;DHT22;23682;53.508;10.476;2022-08-11T14:47:32;27.60;81.10
37842;DHT22;23682;53.508;10.476;2022-08-11T14:50:00;27.50;79.60
37842;DHT22;23682;53.508;10.476;2022-08-11T14:52:51;27.60;83.30
37842;DHT22;23682;53.508;10.476;2022-08-11T14:55:19;27.60;84.70
37842;DHT22;23682;53.508;10.476;2022-08-11T14:58:12;27.60;84.40
37842;DHT22;23682;53.508;10.476;2022-08-11T15:00:40;27.50;85.00
37842;DHT22;23682;53.508;10.476;2022-08-11T15:03:11;27.60;85.00
37842;DHT22;23682;53.508;10.476;2022-08-11T15:05:47;27.50;85.80
37842;DHT22;23682;53.508;10.476;2022-08-11T15:08:28;27.50;85.80
37842;DHT22;23682;53.508;10.476;2022-08-11T15:11:17;27.50;85.90
37842;DHT22;23682;53.508;10.476;2022-08-11T15:14:05;27.50;85.70
37842;DHT22;23682;53.508;10.476;2022-08-11T15:16:40;27.50;87.00
37842;DHT22;23682;53.508;10.476;2022-08-11T15:19:28;27.50;86.60
37842;DHT22;23682;53.508;10.476;2022-08-11T15:22:06;27.40;86.40
37842;DHT22;23682;53.508;10.476;2022-08-11T15:24:56;27.30;87.20
37842;DHT22;23682;53.508;10.476;2022-08-11T15:27:24;27.20;86.80
37842;DHT22;23682;53.508;10.476;2022-08-11T15:30:09;27.20;87.30
37842;DHT22;23682;53.508;10.476;2022-08-11T15:33:06;27.20;87.40
37842;DHT22;23682;53.508;10.476;2022-08-11T15:35:53;27.20;86.80
37842;DHT22;23682;53.508;10.476;2022-08-11T15:38:43;27.20;86.90
37842;DHT22;23682;53.508;10.476;2022-08-11T15:41:15;27.10;86.50
37842;DHT22;23682;53.508;10.476;2022-08-11T15:44:05;27.10;86.20
37842;DHT22;23682;53.508;10.476;2022-08-11T15:47:34;27.10;86.80
37842;DHT22;23682;53.508;10.476;2022-08-11T15:50:03;27.00;86.80
37842;DHT22;23682;53.508;10.476;2022-08-11T15:52:52;27.00;86.40
37842;DHT22;23682;53.508;10.476;2022-08-11T15:55:22;27.00;86.80
37842;DHT22;23682;53.508;10.476;2022-08-11T15:57:52;26.90;87.30
37842;DHT22;23682;53.508;10.476;2022-08-11T16:00:38;26.90;86.60
37842;DHT22;23682;53.508;10.476;2022-08-11T16:03:46;26.90;86.30
37842;DHT22;23682;53.508;10.476;2022-08-11T16:07:14;26.80;86.50
37842;DHT22;23682;53.508;10.476;2022-08-11T16:12:25;26.70;87.00
37842;DHT22;23682;53.508;10.476;2022-08-11T16:14:58;26.70;87.10
37842;DHT22;23682;53.508;10.476;2022-08-11T16:17:51;26.60;86.40
37842;DHT22;23682;53.508;10.476;2022-08-11T16:20:21;26.60;86.40
37842;DHT22;23682;53.508;10.476;2022-08-11T16:22:51;26.60;85.80
37842;DHT22;23682;53.508;10.476;2022-08-11T16:25:29;26.60;86.20
37842;DHT22;23682;53.508;10.476;2022-08-11T16:28:20;26.60;85.90
37842;DHT22;23682;53.508;10.476;2022-08-11T16:30:48;26.60;86.10
37842;DHT22;23682;53.508;10.476;2022-08-11T16:33:17;26.50;86.10
37842;DHT22;23682;53.508;10.476;2022-08-11T16:36:04;26.50;86.10
37842;DHT22;23682;53.508;10.476;2022-08-11T16:38:51;26.40;86.30
37842;DHT22;23682;53.508;10.476;2022-08-11T16:41:21;26.40;86.30
37842;DHT22;23682;53.508;10.476;2022-08-11T16:44:10;26.40;86.70
37842;DHT22;23682;53.508;10.476;2022-08-11T16:47:05;26.40;86.10
37842;DHT22;23682;53.508;10.476;2022-08-11T16:49:36;26.30;86.20
37842;DHT22;23682;53.508;10.476;2022-08-11T16:52:05;26.30;86.80
37842;DHT22;23682;53.508;10.476;2022-08-11T16:54:38;26.30;86.30
37842;DHT22;23682;53.508;10.476;2022-08-11T16:57:14;26.20;86.40
37842;DHT22;23682;53.508;10.476;2022-08-11T17:00:06;26.20;86.70
37842;DHT22;23682;53.508;10.476;2022-08-11T17:02:44;26.20;86.70
37842;DHT22;23682;53.508;10.476;2022-08-11T17:05:33;26.10;86.70
37842;DHT22;23682;53.508;10.476;2022-08-11T17:08:27;26.10;86.90
37842;DHT22;23682;53.508;10.476;2022-08-11T17:11:25;26.00;87.10
37842;DHT22;23682;53.508;10.476;2022-08-11T17:14:19;25.90;87.30
37842;DHT22;23682;53.508;10.476;2022-08-11T17:17:10;25.80;87.50
37842;DHT22;23682;53.508;10.476;2022-08-11T17:19:45;25.80;87.80
37842;DHT22;23682;53.508;10.476;2022-08-11T17:22:35;25.70;87.80
37842;DHT22;23682;53.508;10.476;2022-08-11T17:25:23;25.70;87.50
37842;DHT22;23682;53.508;10.476;2022-08-11T17:27:54;25.60;87.60
37842;DHT22;23682;53.508;10.476;2022-08-11T17:30:24;25.60;88.20
37842;DHT22;23682;53.508;10.476;2022-08-11T17:33:13;25.60;88.10
37842;DHT22;23682;53.508;10.476;2022-08-11T17:36:00;25.60;87.90
37842;DHT22;23682;53.508;10.476;2022-08-11T17:38:29;25.60;88.80
37842;DHT22;23682;53.508;10.476;2022-08-11T17:41:00;25.40;88.40
37842;DHT22;23682;53.508;10.476;2022-08-11T17:43:50;25.40;88.80
37842;DHT22;23682;53.508;10.476;2022-08-11T17:46:38;25.30;88.30
37842;DHT22;23682;53.508;10.476;2022-08-11T17:49:31;25.30;88.10
37842;DHT22;23682;53.508;10.476;2022-08-11T17:52:04;25.20;88.30
37842;DHT22;23682;53.508;10.476;2022-08-11T17:54:51;25.10;88.50
37842;DHT22;23682;53.508;10.476;2022-08-11T17:57:40;25.10;88.70
37842;DHT22;23682;53.508;10.476;2022-08-11T18:00:26;25.00;89.00
37842;DHT22;23682;53.508;10.476;2022-08-11T18:02:55;24.90;89.10
37842;DHT22;23682;53.508;10.476;2022-08-11T18:05:44;24.90;89.70
37842;DHT22;23682;53.508;10.476;2022-08-11T18:08:12;24.80;89.80
37842;DHT22;23682;53.508;10.476;2022-08-11T18:10:59;24.80;89.60
37842;DHT22;23682;53.508;10.476;2022-08-11T18:14:06;24.70;90.00
37842;DHT22;23682;53.508;10.476;2022-08-11T18:16:53;24.60;90.10
37842;DHT22;23682;53.508;10.476;2022-08-11T18:19:38;24.50;90.20
37842;DHT22;23682;53.508;10.476;2022-08-11T18:22:32;24.40;90.40
37842;DHT22;23682;53.508;10.476;2022-08-11T18:25:44;24.30;90.50
37842;DHT22;23682;53.508;10.476;2022-08-11T18:28:43;24.20;90.60
37842;DHT22;23682;53.508;10.476;2022-08-11T18:31:33;24.10;90.80
37842;DHT22;23682;53.508;10.476;2022-08-11T18:34:27;23.90;90.90
37842;DHT22;23682;53.508;10.476;2022-08-11T18:37:35;23.90;91.00
37842;DHT22;23682;53.508;10.476;2022-08-11T18:40:26;23.80;91.10
37842;DHT22;23682;53.508;10.476;2022-08-11T18:43:14;23.70;91.30
37842;DHT22;23682;53.508;10.476;2022-08-11T18:46:05;23.60;91.50
37842;DHT22;23682;53.508;10.476;2022-08-11T18:49:09;23.60;91.60
37842;DHT22;23682;53.508;10.476;2022-08-11T18:52:17;23.60;91.80
37842;DHT22;23682;53.508;10.476;2022-08-11T18:55:10;23.50;91.90
37842;DHT22;23682;53.508;10.476;2022-08-11T18:58:01;23.50;91.90
37842;DHT22;23682;53.508;10.476;2022-08-11T19:00:59;23.30;92.00
37842;DHT22;23682;53.508;10.476;2022-08-11T19:03:48;23.30;92.00
37842;DHT22;23682;53.508;10.476;2022-08-11T19:06:43;23.20;92.10
37842;DHT22;23682;53.508;10.476;2022-08-11T19:09:43;23.10;92.10
37842;DHT22;23682;53.508;10.476;2022-08-11T19:12:36;23.00;92.20
37842;DHT22;23682;53.508;10.476;2022-08-11T19:15:24;22.90;92.40
37842;DHT22;23682;53.508;10.476;2022-08-11T19:18:15;22.80;92.60
37842;DHT22;23682;53.508;10.476;2022-08-11T19:21:04;22.80;92.70
37842;DHT22;23682;53.508;10.476;2022-08-11T19:23:53;22.80;92.70
37842;DHT22;23682;53.508;10.476;2022-08-11T19:26:41;22.70;92.80
37842;DHT22;23682;53.508;10.476;2022-08-11T19:29:29;22.60;92.90
37842;DHT22;23682;53.508;10.476;2022-08-11T19:32:35;22.50;92.90
37842;DHT22;23682;53.508;10.476;2022-08-11T19:35:22;22.40;93.00
37842;DHT22;23682;53.508;10.476;2022-08-11T19:38:08;22.30;93.10
37842;DHT22;23682;53.508;10.476;2022-08-11T19:40:56;22.40;93.50
37842;DHT22;23682;53.508;10.476;2022-08-11T19:44:07;22.20;93.50
37842;DHT22;23682;53.508;10.476;2022-08-11T19:46:54;22.20;93.60
37842;DHT22;23682;53.508;10.476;2022-08-11T19:49:41;22.10;93.60
37842;DHT22;23682;53.508;10.476;2022-08-11T19:52:31;22.00;93.60
37842;DHT22;23682;53.508;10.476;2022-08-11T19:55:17;22.00;93.80
37842;DHT22;23682;53.508;10.476;2022-08-11T19:58:06;21.90;93.70
37842;DHT22;23682;53.508;10.476;2022-08-11T20:00:51;21.80;93.90
37842;DHT22;23682;53.508;10.476;2022-08-11T20:03:37;21.80;94.00
37842;DHT22;23682;53.508;10.476;2022-08-11T20:06:24;21.70;94.00
37842;DHT22;23682;53.508;10.476;2022-08-11T20:09:09;21.70;94.10
37842;DHT22;23682;53.508;10.476;2022-08-11T20:12:17;21.60;94.20
37842;DHT22;23682;53.508;10.476;2022-08-11T20:15:04;21.50;94.30
37842;DHT22;23682;53.508;10.476;2022-08-11T20:17:54;21.40;94.50
37842;DHT22;23682;53.508;10.476;2022-08-11T20:20:40;21.30;94.50
37842;DHT22;23682;53.508;10.476;2022-08-11T20:23:27;21.20;94.60
37842;DHT22;23682;53.508;10.476;2022-08-11T20:26:13;21.10;94.70
37842;DHT22;23682;53.508;10.476;2022-08-11T20:29:02;21.10;94.80
37842;DHT22;23682;53.508;10.476;2022-08-11T20:31:48;21.10;95.00
37842;DHT22;23682;53.508;10.476;2022-08-11T20:34:37;21.10;94.90
37842;DHT22;23682;53.508;10.476;2022-08-11T20:37:24;21.10;95.00
37842;DHT22;23682;53.508;10.476;2022-08-11T20:40:18;21.10;95.00
37842;DHT22;23682;53.508;10.476;2022-08-11T20:43:09;21.00;95.00
37842;DHT22;23682;53.508;10.476;2022-08-11T20:46:16;21.00;95.10
37842;DHT22;23682;53.508;10.476;2022-08-11T20:49:03;21.00;95.30
37842;DHT22;23682;53.508;10.476;2022-08-11T20:51:50;20.90;95.50
37842;DHT22;23682;53.508;10.476;2022-08-11T20:54:39;20.90;95.40
37842;DHT22;23682;53.508;10.476;2022-08-11T20:57:26;20.90;95.50
37842;DHT22;23682;53.508;10.476;2022-08-11T21:00:31;20.70;95.70
37842;DHT22;23682;53.508;10.476;2022-08-11T21:03:18;20.60;96.20
37842;DHT22;23682;53.508;10.476;2022-08-11T21:06:18;20.60;96.10
37842;DHT22;23682;53.508;10.476;2022-08-11T21:09:08;20.50;96.20
37842;DHT22;23682;53.508;10.476;2022-08-11T21:12:15;20.50;96.30
37842;DHT22;23682;53.508;10.476;2022-08-11T21:15:03;20.40;96.60
37842;DHT22;23682;53.508;10.476;2022-08-11T21:18:10;20.40;96.60
37842;DHT22;23682;53.508;10.476;2022-08-11T21:21:03;20.40;96.80
37842;DHT22;23682;53.508;10.476;2022-08-11T21:23:52;20.30;96.90
37842;DHT22;23682;53.508;10.476;2022-08-11T21:26:42;20.30;97.10
37842;DHT22;23682;53.508;10.476;2022-08-11T21:29:31;20.30;97.30
37842;DHT22;23682;53.508;10.476;2022-08-11T21:32:19;20.20;97.30
37842;DHT22;23682;53.508;10.476;2022-08-11T21:35:08;20.20;97.60
37842;DHT22;23682;53.508;10.476;2022-08-11T21:37:55;20.20;97.50
37842;DHT22;23682;53.508;10.476;2022-08-11T21:40:41;20.20;97.60
37842;DHT22;23682;53.508;10.476;2022-08-11T21:43:30;20.20;97.70
37842;DHT22;23682;53.508;10.476;2022-08-11T21:46:20;20.20;97.80
37842;DHT22;23682;53.508;10.476;2022-08-11T21:49:08;20.20;98.00
37842;DHT22;23682;53.508;10.476;2022-08-11T21:51:54;20.10;98.10
37842;DHT22;23682;53.508;10.476;2022-08-11T21:54:39;20.00;98.10
37842;DHT22;23682;53.508;10.476;2022-08-11T21:57:26;20.00;98.20